Terminal Aerodrome Forecast
Issued by NWS Sioux Falls, SD

Home | Current Version | Previous Version | Graphics & Text | Print | Product List | Glossary Off
Versions: 1 2 3 4 5 6 7 8 9 10 11 12 13 14 15 16 17 18 19 20 21 22 23 24 25 26 27 28 29 30

958
FTUS43 KFSD 231141 AAC
TAFSUX
TAF AMD
KSUX 231141Z 2312/2412 03013KT P6SM OVC011
     FM231600 05016G24KT P6SM OVC015
     FM232300 05019G28KT 4SM -RA OVC010
     FM240000 05019G29KT 3SM RA OVC010
     FM240200 03020G29KT 3SM RASN BLSN OVC008
     FM240400 03020G30KT 2SM -SN BLSN OVC008
     FM240500 02020G30KT 1SM -SN BLSN OVC003
     FM240700 02021G31KT 1/4SM +SN BLSN VV003=

USA.gov is the U.S. government's official web portal to all federal, state and local government web resources and services.